Time;durP1;ratioP1;P1;durP2;ratioP2;P2;SDS_P1;SDS_P2;PMS_P1;PMS_P2;Temp;Humidity;BMP_temperature;BMP_pressure;BME280_temperature;BME280_humidity;BME280_pressure;Samples;Min_cycle;Max_cycle;Signal;HPM_P1;HPM_P2
2022/11/03 00:01:40;;;;;;;;;;;;;;;14.60;56.32;99382.59;4503138;31;20035;-82
2022/11/03 00:04:05;;;;;;;;;;;;;;;15.05;55.61;99378.03;4488742;31;20006;-82
2022/11/03 00:06:31;;;;;;;;;;;;;;;15.04;55.19;99373.66;4488535;31;19975;-82
2022/11/03 00:08:56;;;;;;;;;;;;;;;14.78;56.11;99374.47;4503257;31;20217;-81
2022/11/03 00:11:22;;;;;;;;;;;;;;;14.38;56.98;99376.87;4502997;31;19990;-82
2022/11/03 00:13:47;;;;;;;;;;;;;;;14.35;57.37;99373.47;4502875;31;19989;-82
2022/11/03 00:16:12;;;;;;;;;;;;;;;14.46;56.95;99375.47;4488495;31;20303;-82
2022/11/03 00:18:37;;;;;;;;;;;;;;;14.39;57.14;99374.16;4488425;31;20018;-82
2022/11/03 00:21:10;;;;;;;;;;;;;;;14.35;57.16;99378.78;4502900;31;19980;-82
2022/11/03 00:23:37;;;;;;;;;;;;;;;14.57;56.49;99377.50;4502800;31;19963;-82
2022/11/03 00:26:08;;;;;;;;;;;;;;;14.23;57.60;99371.56;4487358;31;20706;-83
2022/11/03 00:28:34;;;;;;;;;;;;;;;14.13;57.79;99373.06;4502787;31;19979;-82
2022/11/03 00:31:00;;;;;;;;;;;;;;;14.27;57.21;99369.56;4502777;31;20011;-82
2022/11/03 00:33:26;;;;;;;;;;;;;;;14.40;56.61;99370.53;4502709;31;19971;-82
2022/11/03 00:35:55;;;;;;;;;;;;;;;13.92;58.03;99373.38;4488366;31;19975;-82
2022/11/03 00:38:21;;;;;;;;;;;;;;;14.26;57.15;99371.38;4488746;31;20330;-82
2022/11/03 00:43:35;;;;;;;;;;;;;;;14.55;56.47;99369.59;4502783;31;20333;-82
2022/11/03 00:46:01;;;;;;;;;;;;;;;14.02;57.99;99384.28;4488291;31;19979;-82
2022/11/03 00:48:29;;;;;;;;;;;;;;;14.46;56.91;99383.41;4488135;31;19983;-82
2022/11/03 00:51:05;;;;;;;;;;;;;;;14.33;57.34;99379.81;4502419;31;19972;-82
2022/11/03 00:53:31;;;;;;;;;;;;;;;14.06;58.16;99382.31;4488168;31;19972;-82
2022/11/03 00:55:56;;;;;;;;;;;;;;;14.19;57.60;99377.97;4488114;31;19991;-82
2022/11/03 00:58:21;;;;;;;;;;;;;;;13.80;59.03;99395.28;4502400;31;19983;-82
2022/11/03 01:00:47;;;;;;;;;;;;;;;13.76;58.89;99396.41;4502311;31;20235;-82
2022/11/03 01:03:12;;;;;;;;;;;;;;;14.18;57.58;99392.19;4474880;31;19979;-82
2022/11/03 01:08:25;;;;;;;;;;;;;;;14.38;56.55;99379.53;4502479;31;20375;-82
2022/11/03 01:13:38;;;;;;;;;;;;;;;14.30;56.16;99388.78;4502253;31;20016;-82
2022/11/03 01:16:03;;;;;;;;;;;;;;;14.49;55.87;99377.09;4502254;31;19972;-82
2022/11/03 01:18:28;;;;;;;;;;;;;;;14.71;55.65;99380.12;4487668;31;20028;-82
2022/11/03 01:20:54;;;;;;;;;;;;;;;14.39;56.83;99382.09;4502053;31;19980;-82
2022/11/03 01:23:20;;;;;;;;;;;;;;;14.20;57.61;99384.13;4487803;31;20026;-82
2022/11/03 01:25:45;;;;;;;;;;;;;;;14.08;58.25;99385.72;4501923;31;19986;-82
2022/11/03 01:28:10;;;;;;;;;;;;;;;13.79;59.48;99385.66;4501803;31;20303;-82
2022/11/03 01:30:35;;;;;;;;;;;;;;;14.16;58.20;99375.53;4487487;31;20239;-82
2022/11/03 01:33:01;;;;;;;;;;;;;;;13.67;59.14;99386.34;4501796;31;19975;-82
2022/11/03 01:35:26;;;;;;;;;;;;;;;13.75;59.02;99382.34;4501942;31;19994;-82
2022/11/03 01:37:51;;;;;;;;;;;;;;;14.04;58.06;99373.59;4504230;31;19994;-82
2022/11/03 01:40:16;;;;;;;;;;;;;;;13.57;59.65;99380.75;4489802;31;19968;-82
2022/11/03 01:42:42;;;;;;;;;;;;;;;13.35;60.47;99381.13;4489638;31;19987;-82
2022/11/03 01:45:07;;;;;;;;;;;;;;;13.51;60.17;99375.81;4504042;31;19971;-82
2022/11/03 01:47:32;;;;;;;;;;;;;;;13.30;60.63;99373.41;4489805;31;20014;-82
2022/11/03 01:49:59;;;;;;;;;;;;;;;13.47;60.29;99369.81;4489671;31;20275;-82
2022/11/03 01:52:25;;;;;;;;;;;;;;;13.69;59.50;99363.28;4489633;31;19983;-82
2022/11/03 01:54:53;;;;;;;;;;;;;;;13.57;59.84;99368.34;4504075;31;19975;-82
2022/11/03 01:57:20;;;;;;;;;;;;;;;13.66;59.56;99361.69;4489708;31;20274;-82
2022/11/03 01:59:45;;;;;;;;;;;;;;;13.14;61.29;99364.62;4489672;31;19971;-82
2022/11/03 02:02:10;;;;;;;;;;;;;;;13.13;61.15;99362.91;4489659;31;19967;-82
2022/11/03 02:04:35;;;;;;;;;;;;;;;13.64;59.88;99358.28;4489607;31;19971;-82
2022/11/03 02:07:21;;;;;;;;;;;;;;;13.56;60.02;99364.00;4503953;31;20295;-82
2022/11/03 02:09:46;;;;;;;;;;;;;;;14.01;58.61;99352.59;4503258;31;19972;-82
2022/11/03 02:12:11;;;;;;;;;;;;;;;13.52;59.61;99361.59;4503662;31;20002;-82
2022/11/03 02:14:39;;;;;;;;;;;;;;;13.47;59.77;99359.25;4503976;31;19971;-82
2022/11/03 02:17:06;;;;;;;;;;;;;;;13.55;59.22;99362.28;4489632;31;19987;-81
2022/11/03 02:19:31;;;;;;;;;;;;;;;13.52;59.24;99357.19;4489554;31;19975;-82
2022/11/03 02:22:12;;;;;;;;;;;;;;;13.79;58.09;99359.19;4489320;31;19971;-82
2022/11/03 02:24:47;;;;;;;;;;;;;;;13.81;57.79;99359.94;4503846;31;19982;-82
2022/11/03 02:27:12;;;;;;;;;;;;;;;13.67;58.09;99355.44;4489538;31;20022;-82
2022/11/03 02:29:38;;;;;;;;;;;;;;;12.86;59.70;99362.63;4489238;31;20347;-82
2022/11/03 02:32:04;;;;;;;;;;;;;;;13.09;58.81;99354.28;4489278;31;20053;-82
2022/11/03 02:34:46;;;;;;;;;;;;;;;13.35;58.29;99350.22;4489463;31;19987;-82
2022/11/03 02:37:13;;;;;;;;;;;;;;;13.82;56.91;99337.81;4489338;31;19987;-82
2022/11/03 02:39:43;;;;;;;;;;;;;;;13.76;57.03;99343.47;4489443;31;20013;-82
2022/11/03 02:42:08;;;;;;;;;;;;;;;13.70;57.38;99344.66;4503665;31;20573;-82
2022/11/03 02:44:33;;;;;;;;;;;;;;;13.75;57.11;99337.31;4503537;31;19995;-82
2022/11/03 02:46:59;;;;;;;;;;;;;;;13.28;58.25;99340.88;4502759;31;19983;-81
2022/11/03 02:49:25;;;;;;;;;;;;;;;13.79;56.71;99342.41;4501907;31;19989;-82
2022/11/03 02:52:00;;;;;;;;;;;;;;;13.33;58.04;99349.44;4489107;31;20239;-82
2022/11/03 02:54:26;;;;;;;;;;;;;;;13.75;56.49;99345.25;4475804;32;20461;-81
2022/11/03 02:56:52;;;;;;;;;;;;;;;13.82;56.39;99358.13;4480336;31;20379;-82
2022/11/03 02:59:19;;;;;;;;;;;;;;;13.96;56.00;99356.38;4473506;32;19980;-81
2022/11/03 03:01:51;;;;;;;;;;;;;;;14.13;55.55;99355.34;4487661;32;19996;-82
2022/11/03 03:04:36;;;;;;;;;;;;;;;14.12;55.56;99358.13;4473682;32;20024;-82
2022/11/03 03:07:06;;;;;;;;;;;;;;;13.84;56.25;99356.25;4472830;32;19987;-82
2022/11/03 03:09:36;;;;;;;;;;;;;;;14.17;55.20;99353.37;4473492;32;19968;-82
2022/11/03 03:12:01;;;;;;;;;;;;;;;14.28;54.84;99355.41;4473360;32;19976;-82
2022/11/03 03:14:28;;;;;;;;;;;;;;;14.22;54.56;99350.47;4473286;32;20229;-82
2022/11/03 03:16:56;;;;;;;;;;;;;;;14.07;54.38;99353.09;4473368;32;19987;-82
2022/11/03 03:19:25;;;;;;;;;;;;;;;14.05;54.02;99354.13;4487673;32;19986;-82
2022/11/03 03:21:51;;;;;;;;;;;;;;;13.71;54.44;99356.97;4473224;32;20341;-82
2022/11/03 03:24:32;;;;;;;;;;;;;;;13.64;54.01;99355.63;4473371;32;19975;-83
2022/11/03 03:26:59;;;;;;;;;;;;;;;13.65;53.25;99349.38;4487658;32;19998;-83
2022/11/03 03:29:28;;;;;;;;;;;;;;;13.41;53.80;99348.16;4487258;32;20013;-82
2022/11/03 03:31:55;;;;;;;;;;;;;;;13.52;53.07;99343.97;4467233;32;19991;-80
2022/11/03 03:34:20;;;;;;;;;;;;;;;13.18;54.43;99358.22;4477298;31;20625;-79
2022/11/03 03:36:46;;;;;;;;;;;;;;;13.40;53.26;99351.72;4476641;32;19979;-82
2022/11/03 03:39:11;;;;;;;;;;;;;;;13.08;54.31;99346.44;4483442;31;20019;-84
2022/11/03 03:41:36;;;;;;;;;;;;;;;13.52;53.41;99336.00;4485393;31;19988;-81
2022/11/03 03:44:04;;;;;;;;;;;;;;;13.83;52.72;99343.94;4474847;31;20397;-82
2022/11/03 03:46:31;;;;;;;;;;;;;;;13.70;55.10;99351.78;4477220;32;20002;-80
2022/11/03 03:48:56;;;;;;;;;;;;;;;13.41;56.19;99348.16;4481248;31;20011;-82
2022/11/03 03:51:22;;;;;;;;;;;;;;;13.65;54.98;99349.38;4472753;31;19990;-79
2022/11/03 03:53:52;;;;;;;;;;;;;;;13.62;55.10;99344.28;4482962;32;19987;-81
2022/11/03 03:56:21;;;;;;;;;;;;;;;13.64;55.00;99341.53;4492272;31;20346;-80
2022/11/03 03:58:46;;;;;;;;;;;;;;;13.55;55.29;99341.12;4476201;32;19968;-81
2022/11/03 04:01:11;;;;;;;;;;;;;;;13.74;54.47;99348.00;4497499;31;20359;-81
2022/11/03 04:03:37;;;;;;;;;;;;;;;13.15;55.74;99351.31;4488088;31;20020;-82
2022/11/03 04:06:02;;;;;;;;;;;;;;;13.37;55.47;99347.47;4495830;31;19986;-83
2022/11/03 04:08:27;;;;;;;;;;;;;;;13.65;54.63;99345.87;4477483;31;20034;-83
2022/11/03 04:24:39;;;;;;;;;;;;;;;13.82;54.05;99353.69;4422767;32;20034;-82
2022/11/03 04:27:30;;;;;;;;;;;;;;;13.86;54.26;99352.56;4434428;32;20392;-81
2022/11/03 04:29:59;;;;;;;;;;;;;;;13.89;54.47;99351.53;4421980;32;19996;-82
2022/11/03 04:32:24;;;;;;;;;;;;;;;13.88;54.49;99345.37;4436034;32;20507;-83
2022/11/03 04:34:50;;;;;;;;;;;;;;;13.88;54.13;99341.88;4412441;32;19997;-83
2022/11/03 04:37:15;;;;;;;;;;;;;;;13.84;53.35;99335.06;4403477;32;20033;-83
2022/11/03 04:39:41;;;;;;;;;;;;;;;13.86;52.85;99346.41;4432779;32;19981;-83
2022/11/03 04:42:16;;;;;;;;;;;;;;;13.88;52.70;99348.03;4422471;32;20004;-83
2022/11/03 04:44:42;;;;;;;;;;;;;;;13.85;52.56;99342.06;4409499;32;20011;-83
2022/11/03 04:47:09;;;;;;;;;;;;;;;13.79;51.87;99340.66;4422337;32;20011;-83
2022/11/03 04:49:34;;;;;;;;;;;;;;;13.83;50.89;99347.47;4417411;31;20031;-83
2022/11/03 04:51:59;;;;;;;;;;;;;;;13.65;49.98;99335.28;4502392;31;19967;-83
2022/11/03 04:54:24;;;;;;;;;;;;;;;13.84;50.18;99341.22;4488183;31;20014;-83
2022/11/03 04:56:50;;;;;;;;;;;;;;;13.77;50.34;99345.16;4487189;31;19976;-83
2022/11/03 04:59:15;;;;;;;;;;;;;;;13.90;50.10;99338.19;4487023;31;19971;-83
2022/11/03 05:01:41;;;;;;;;;;;;;;;13.98;50.08;99344.84;4488104;31;20197;-83
2022/11/03 05:04:07;;;;;;;;;;;;;;;13.84;50.10;99341.22;4487987;31;19988;-84
2022/11/03 05:06:32;;;;;;;;;;;;;;;13.95;49.99;99340.59;4502303;31;19994;-83
2022/11/03 05:08:59;;;;;;;;;;;;;;;14.02;50.07;99333.94;4502237;31;20050;-83
2022/11/03 05:11:27;;;;;;;;;;;;;;;14.05;50.06;99340.88;4488629;31;19975;-83
2022/11/03 05:13:52;;;;;;;;;;;;;;;14.05;50.15;99340.88;4504229;31;20030;-83
2022/11/03 05:16:18;;;;;;;;;;;;;;;13.99;50.18;99344.75;4490119;31;20069;-83
2022/11/03 05:18:44;;;;;;;;;;;;;;;14.01;49.64;99353.44;4490043;31;20261;-83
2022/11/03 05:21:13;;;;;;;;;;;;;;;14.05;49.44;99354.13;4504204;31;19963;-84
2022/11/03 05:23:39;;;;;;;;;;;;;;;13.96;48.27;99345.78;4487741;31;20056;-82
2022/11/03 05:26:06;;;;;;;;;;;;;;;14.06;47.62;99343.44;4474342;32;20051;-83
2022/11/03 05:28:35;;;;;;;;;;;;;;;14.11;47.76;99344.00;4474127;32;19994;-83
2022/11/03 05:31:00;;;;;;;;;;;;;;;14.09;47.87;99350.34;4486330;31;20023;-84
2022/11/03 05:33:26;;;;;;;;;;;;;;;14.19;47.77;99345.34;4476462;31;20295;-83
2022/11/03 05:35:51;;;;;;;;;;;;;;;14.21;47.92;99351.41;4499030;31;19998;-84
2022/11/03 05:38:17;;;;;;;;;;;;;;;14.22;48.26;99350.47;4495900;31;19963;-83
2022/11/03 05:40:43;;;;;;;;;;;;;;;14.30;47.67;99357.00;4479161;32;19968;-83
2022/11/03 05:43:09;;;;;;;;;;;;;;;14.35;47.72;99348.75;4501136;31;20052;-84
2022/11/03 05:45:35;;;;;;;;;;;;;;;14.32;47.84;99356.91;4477292;31;20604;-83
2022/11/03 05:48:01;;;;;;;;;;;;;;;14.47;48.40;99361.28;4503192;31;20307;-84
2022/11/03 05:50:27;;;;;;;;;;;;;;;14.49;49.35;99366.50;4503146;31;19971;-89
2022/11/03 05:52:53;;;;;;;;;;;;;;;14.49;49.73;99375.28;4490871;31;20550;-83
2022/11/03 05:55:19;;;;;;;;;;;;;;;14.52;50.14;99383.03;4490712;31;20010;-84
2022/11/03 05:57:44;;;;;;;;;;;;;;;14.50;51.17;99379.62;4495111;31;20288;-84
2022/11/03 06:00:19;;;;;;;;;;;;;;;14.49;52.01;99391.19;4481493;31;19983;-81
2022/11/03 06:02:44;;;;;;;;;;;;;;;14.50;52.71;99392.88;4492633;31;19987;-80
2022/11/03 06:05:14;;;;;;;;;;;;;;;14.52;53.19;99385.69;4501215;31;19979;-81
2022/11/03 06:07:40;;;;;;;;;;;;;;;14.46;53.76;99401.13;4478018;31;20318;-80
2022/11/03 06:10:17;;;;;;;;;;;;;;;14.40;54.33;99404.16;4496768;31;19982;-79
2022/11/03 06:12:42;;;;;;;;;;;;;;;14.51;54.17;99407.00;4460721;32;20019;-80
2022/11/03 06:15:08;;;;;;;;;;;;;;;14.57;54.22;99401.34;4486653;32;20240;-80
2022/11/03 06:17:33;;;;;;;;;;;;;;;14.61;54.25;99402.88;4473732;32;19975;-80
2022/11/03 06:19:59;;;;;;;;;;;;;;;14.64;54.19;99404.47;4472605;32;20505;-81
2022/11/03 06:22:31;;;;;;;;;;;;;;;14.69;53.99;99403.25;4459580;32;20020;-80
2022/11/03 06:25:15;;;;;;;;;;;;;;;14.78;53.22;99399.19;4488040;32;19997;-80
2022/11/03 06:27:40;;;;;;;;;;;;;;;14.81;53.00;99406.09;4488290;32;19975;-80
2022/11/03 06:30:17;;;;;;;;;;;;;;;14.91;52.19;99405.44;4473806;32;20016;-80
2022/11/03 06:32:43;;;;;;;;;;;;;;;14.97;52.01;99403.31;4487977;32;20627;-80
2022/11/03 06:35:08;;;;;;;;;;;;;;;15.01;52.08;99404.84;4487948;32;20008;-80
2022/11/03 06:37:33;;;;;;;;;;;;;;;15.07;51.73;99402.66;4487930;32;19994;-80
2022/11/03 06:39:59;;;;;;;;;;;;;;;15.14;51.33;99406.63;4487622;32;19992;-80
2022/11/03 06:42:25;;;;;;;;;;;;;;;15.20;51.26;99405.41;4487849;32;19983;-80
2022/11/03 06:44:50;;;;;;;;;;;;;;;15.24;51.47;99404.25;4473732;32;19991;-80
2022/11/03 06:47:20;;;;;;;;;;;;;;;15.36;52.15;99421.19;4487859;32;20240;-80
2022/11/03 06:49:46;;;;;;;;;;;;;;;15.31;53.41;99415.31;4473837;32;20402;-80
2022/11/03 06:52:30;;;;;;;;;;;;;;;15.40;53.58;99419.19;4473446;32;19987;-80
2022/11/03 06:55:11;;;;;;;;;;;;;;;15.50;53.77;99418.47;4473625;32;20003;-80
2022/11/03 06:57:39;;;;;;;;;;;;;;;15.64;54.03;99419.38;4487851;32;20068;-81
2022/11/03 07:00:15;;;;;;;;;;;;;;;15.73;54.21;99422.31;4487840;32;20359;-81
2022/11/03 07:02:59;;;;;;;;;;;;;;;15.85;54.31;99422.47;4473544;32;19987;-80
2022/11/03 07:05:25;;;;;;;;;;;;;;;15.94;54.27;99419.22;4487997;32;19976;-80
2022/11/03 07:07:57;;;;;;;;;;;;;;;15.98;54.63;99425.19;4473724;32;19994;-81
2022/11/03 07:10:24;;;;;;;;;;;;;;;16.03;54.71;99415.94;4487989;32;19978;-80
2022/11/03 07:12:49;;;;;;;;;;;;;;;16.09;54.83;99418.19;4487910;32;19980;-81
2022/11/03 07:15:20;;;;;;;;;;;;;;;16.18;54.89;99421.16;4487930;32;20355;-80
2022/11/03 07:17:45;;;;;;;;;;;;;;;16.19;55.09;99423.72;4487945;32;20042;-80
2022/11/03 07:20:14;;;;;;;;;;;;;;;15.77;56.15;99427.44;4473535;32;19994;-81
2022/11/03 07:22:40;;;;;;;;;;;;;;;16.02;55.92;99430.19;4473856;32;19999;-80
2022/11/03 07:25:05;;;;;;;;;;;;;;;16.14;55.78;99428.50;4473669;32;19976;-80
2022/11/03 07:27:34;;;;;;;;;;;;;;;16.17;55.38;99430.97;4473601;32;19975;-80
2022/11/03 07:30:05;;;;;;;;;;;;;;;16.30;55.13;99423.84;4473427;32;20036;-79
2022/11/03 07:32:31;;;;;;;;;;;;;;;16.27;54.96;99423.22;4460185;32;20003;-79
2022/11/03 07:35:01;;;;;;;;;;;;;;;16.36;54.56;99430.56;4487163;32;19975;-80
2022/11/03 07:37:27;;;;;;;;;;;;;;;16.49;54.23;99420.75;4473372;32;20026;-80
2022/11/03 07:39:52;;;;;;;;;;;;;;;16.51;54.19;99424.19;4487520;32;19986;-80
2022/11/03 07:42:18;;;;;;;;;;;;;;;16.60;53.99;99432.50;4460101;32;19987;-80
2022/11/03 07:44:43;;;;;;;;;;;;;;;16.65;53.62;99427.69;4473457;32;20081;-80
2022/11/03 07:47:15;;;;;;;;;;;;;;;16.68;53.48;99424.81;4487558;32;20011;-80
2022/11/03 07:49:40;;;;;;;;;;;;;;;16.68;53.37;99415.03;4473038;32;19972;-80
2022/11/03 07:52:07;;;;;;;;;;;;;;;16.65;53.27;99425.03;4473054;32;19997;-80
2022/11/03 07:54:33;;;;;;;;;;;;;;;16.57;53.36;99422.06;4487441;32;19975;-80
2022/11/03 07:57:17;;;;;;;;;;;;;;;16.57;54.00;99428.22;4487387;32;20022;-80
2022/11/03 07:59:46;;;;;;;;;;;;;;;16.59;54.02;99420.13;4487387;32;19967;-80
2022/11/03 08:02:31;;;;;;;;;;;;;;;16.59;54.03;99430.78;4487218;32;19980;-80
2022/11/03 08:04:57;;;;;;;;;;;;;;;15.25;58.84;99432.47;4473162;32;19994;-81
2022/11/03 08:07:22;;;;;;;;;;;;;;;15.92;57.05;99421.97;4487291;32;19990;-80
2022/11/03 08:09:47;;;;;;;;;;;;;;;16.08;56.60;99424.44;4487255;32;19968;-80
2022/11/03 08:12:13;;;;;;;;;;;;;;;16.14;56.36;99423.19;4487167;32;19980;-80
2022/11/03 08:14:38;;;;;;;;;;;;;;;15.47;58.36;99420.47;4487270;32;20042;-80
2022/11/03 08:17:03;;;;;;;;;;;;;;;15.76;57.66;99431.03;4487191;32;19976;-80
2022/11/03 08:19:29;;;;;;;;;;;;;;;15.98;57.16;99426.03;4459872;32;20287;-80
2022/11/03 08:21:55;;;;;;;;;;;;;;;16.06;56.94;99423.69;4487093;32;20368;-80
2022/11/03 08:24:20;;;;;;;;;;;;;;;16.10;56.84;99419.03;4459774;32;20245;-80
2022/11/03 08:26:45;;;;;;;;;;;;;;;16.09;56.83;99414.69;4487130;32;19999;-80
2022/11/03 08:29:10;;;;;;;;;;;;;;;16.12;56.71;99419.78;4472609;32;19964;-80
2022/11/03 08:31:36;;;;;;;;;;;;;;;16.11;56.69;99415.44;4486873;32;19972;-80
2022/11/03 08:34:01;;;;;;;;;;;;;;;16.00;57.32;99415.28;4487036;32;19972;-80
2022/11/03 08:36:26;;;;;;;;;;;;;;;15.97;57.53;99410.19;4486870;32;19975;-80
2022/11/03 08:38:51;;;;;;;;;;;;;;;16.01;57.67;99414.31;4486903;32;19967;-80
2022/11/03 08:41:17;;;;;;;;;;;;;;;16.01;57.69;99417.84;4487005;32;20021;-80
2022/11/03 08:43:42;;;;;;;;;;;;;;;15.81;58.04;99413.84;4486922;32;19995;-81
2022/11/03 08:46:07;;;;;;;;;;;;;;;15.85;58.11;99410.03;4485683;32;19990;-80
2022/11/03 08:48:32;;;;;;;;;;;;;;;15.88;58.11;99403.69;4486773;32;20259;-80
2022/11/03 08:50:58;;;;;;;;;;;;;;;15.70;58.62;99408.34;4486783;32;19987;-80
2022/11/03 08:53:24;;;;;;;;;;;;;;;15.99;57.92;99408.25;4486579;32;19976;-80
2022/11/03 08:55:50;;;;;;;;;;;;;;;16.09;57.73;99412.03;4472481;32;20349;-80
2022/11/03 08:58:15;;;;;;;;;;;;;;;16.17;57.34;99403.50;4486629;32;19971;-80
2022/11/03 09:00:40;;;;;;;;;;;;;;;16.17;57.35;99408.81;4486641;32;19972;-80
2022/11/03 09:03:06;;;;;;;;;;;;;;;15.46;58.86;99408.16;4486655;32;19968;-80
2022/11/03 09:05:31;;;;;;;;;;;;;;;15.98;58.05;99404.75;4472293;32;19971;-80
2022/11/03 09:07:56;;;;;;;;;;;;;;;16.07;58.01;99390.87;4486411;32;19964;-80
2022/11/03 09:10:22;;;;;;;;;;;;;;;16.20;57.69;99393.53;4486446;32;19975;-80
2022/11/03 09:12:47;;;;;;;;;;;;;;;16.30;57.43;99399.06;4472254;32;20021;-80
2022/11/03 09:15:12;;;;;;;;;;;;;;;16.01;58.24;99387.75;4486250;32;19987;-80
2022/11/03 09:17:37;;;;;;;;;;;;;;;16.20;57.76;99387.34;4486327;32;20102;-80
2022/11/03 09:20:03;;;;;;;;;;;;;;;16.24;57.78;99391.50;4471915;32;19992;-80
2022/11/03 09:22:29;;;;;;;;;;;;;;;15.53;59.66;99390.91;4486389;32;20022;-80
2022/11/03 09:24:54;;;;;;;;;;;;;;;15.99;58.66;99398.47;4486403;32;19971;-80
2022/11/03 09:27:19;;;;;;;;;;;;;;;15.93;58.90;99396.25;4486244;32;20001;-80
2022/11/03 09:29:45;;;;;;;;;;;;;;;16.14;58.41;99385.97;4485972;32;19972;-80
2022/11/03 09:32:10;;;;;;;;;;;;;;;15.92;59.09;99384.75;4486132;32;19983;-80
2022/11/03 09:34:36;;;;;;;;;;;;;;;16.17;58.38;99376.91;4486214;32;19976;-80
2022/11/03 09:37:01;;;;;;;;;;;;;;;16.26;58.09;99384.28;4485932;32;19986;-80
2022/11/03 09:39:26;;;;;;;;;;;;;;;16.29;57.94;99371.62;4486072;32;19976;-80
2022/11/03 09:41:52;;;;;;;;;;;;;;;16.02;58.79;99384.16;4471770;32;19984;-80
2022/11/03 09:44:17;;;;;;;;;;;;;;;16.21;58.36;99371.31;4472076;32;19976;-80
2022/11/03 09:46:42;;;;;;;;;;;;;;;16.29;58.12;99366.31;4471945;32;19971;-80
2022/11/03 09:49:10;;;;;;;;;;;;;;;16.31;58.12;99374.19;4486152;32;19990;-80
2022/11/03 09:51:35;;;;;;;;;;;;;;;16.43;57.84;99362.69;4472036;32;20063;-80
2022/11/03 09:54:01;;;;;;;;;;;;;;;16.41;57.62;99359.28;4486085;32;19972;-80
2022/11/03 09:56:27;;;;;;;;;;;;;;;16.44;57.71;99358.25;4471910;32;20251;-80
2022/11/03 09:58:52;;;;;;;;;;;;;;;16.50;57.60;99358.66;4488440;32;19976;-80
2022/11/03 10:01:18;;;;;;;;;;;;;;;16.11;58.34;99362.28;4474133;32;19983;-80
2022/11/03 10:03:43;;;;;;;;;;;;;;;16.26;57.86;99353.25;4488476;32;19991;-80
2022/11/03 10:06:08;;;;;;;;;;;;;;;16.33;57.73;99348.34;4488345;32;20023;-80
2022/11/03 10:08:34;;;;;;;;;;;;;;;16.41;57.63;99345.16;4488369;32;19972;-80
2022/11/03 10:11:00;;;;;;;;;;;;;;;16.05;58.65;99347.59;4474182;32;20023;-80
2022/11/03 10:13:28;;;;;;;;;;;;;;;16.29;57.86;99334.41;4488320;32;19968;-80
2022/11/03 10:15:53;;;;;;;;;;;;;;;16.35;57.71;99340.25;4488168;32;19964;-80
2022/11/03 10:18:18;;;;;;;;;;;;;;;16.02;58.45;99341.62;4473928;32;20424;-80
2022/11/03 10:20:44;;;;;;;;;;;;;;;16.21;58.04;99331.44;4473725;32;19994;-80
2022/11/03 10:23:09;;;;;;;;;;;;;;;15.87;59.29;99324.91;4488062;32;19979;-80
2022/11/03 10:25:35;;;;;;;;;;;;;;;16.02;58.75;99321.22;4473684;32;19976;-80
2022/11/03 10:28:19;;;;;;;;;;;;;;;16.16;58.41;99314.94;4473609;32;20621;-80
2022/11/03 10:30:51;;;;;;;;;;;;;;;16.06;58.78;99316.53;4488155;32;19979;-80
2022/11/03 10:33:27;;;;;;;;;;;;;;;15.66;59.69;99306.78;4473574;32;20027;-80
2022/11/03 10:35:53;;;;;;;;;;;;;;;15.95;59.10;99300.47;4473772;32;19987;-80
2022/11/03 10:38:29;;;;;;;;;;;;;;;15.97;59.04;99295.91;4487900;32;20000;-80
2022/11/03 10:40:55;;;;;;;;;;;;;;;15.52;60.24;99298.91;4488066;32;19984;-80
2022/11/03 10:43:20;;;;;;;;;;;;;;;15.73;59.74;99289.50;4460459;32;19996;-80
2022/11/03 10:45:46;;;;;;;;;;;;;;;15.92;59.13;99289.09;4473638;32;19964;-80
2022/11/03 10:48:11;;;;;;;;;;;;;;;15.97;59.11;99287.94;4473556;32;19988;-80
2022/11/03 10:50:39;;;;;;;;;;;;;;;16.05;58.77;99286.47;4473723;32;20012;-80
2022/11/03 10:53:07;;;;;;;;;;;;;;;15.90;59.24;99280.41;4473586;32;19976;-81
2022/11/03 10:55:32;;;;;;;;;;;;;;;15.80;59.12;99283.78;4473547;32;19986;-80
2022/11/03 10:57:58;;;;;;;;;;;;;;;15.90;59.01;99271.59;4473465;32;19987;-80
2022/11/03 11:00:24;;;;;;;;;;;;;;;15.67;59.63;99273.12;4473567;32;19976;-80
2022/11/03 11:02:50;;;;;;;;;;;;;;;15.86;59.31;99270.09;4487723;32;19990;-80
2022/11/03 11:05:20;;;;;;;;;;;;;;;15.94;59.10;99258.94;4487756;32;19994;-81
2022/11/03 11:07:45;;;;;;;;;;;;;;;15.70;59.77;99249.00;4473571;32;19987;-80
2022/11/03 11:10:11;;;;;;;;;;;;;;;15.37;60.90;99255.63;4472652;32;20002;-80
2022/11/03 11:12:36;;;;;;;;;;;;;;;15.48;60.66;99252.25;4487619;32;19967;-80
2022/11/03 11:15:05;;;;;;;;;;;;;;;15.63;60.24;99247.72;4487774;32;19991;-80
2022/11/03 11:17:41;;;;;;;;;;;;;;;15.81;59.78;99249.13;4487713;32;19984;-80
2022/11/03 11:20:20;;;;;;;;;;;;;;;15.56;60.38;99236.66;4473707;32;19980;-80
2022/11/03 11:22:46;;;;;;;;;;;;;;;15.74;59.99;99234.56;4487643;32;20349;-80
2022/11/03 11:25:11;;;;;;;;;;;;;;;15.79;59.94;99229.81;4473398;32;19986;-80
2022/11/03 11:27:40;;;;;;;;;;;;;;;15.88;59.75;99229.16;4473348;32;20326;-80
2022/11/03 11:30:09;;;;;;;;;;;;;;;15.94;59.59;99222.59;4487574;32;20354;-80
2022/11/03 11:32:37;;;;;;;;;;;;;;;16.03;59.39;99215.75;4487584;32;19980;-80
2022/11/03 11:35:02;;;;;;;;;;;;;;;16.03;59.31;99213.09;4487670;32;20308;-80
2022/11/03 11:37:28;;;;;;;;;;;;;;;15.41;60.69;99213.78;4487458;32;20025;-80
2022/11/03 11:39:53;;;;;;;;;;;;;;;15.85;59.88;99216.09;4487597;32;19987;-80
2022/11/03 11:42:19;;;;;;;;;;;;;;;15.45;61.23;99205.53;4487471;32;20004;-80
2022/11/03 11:44:49;;;;;;;;;;;;;;;15.72;60.50;99204.56;4473450;32;20251;-80
2022/11/03 11:47:27;;;;;;;;;;;;;;;15.79;60.46;99197.91;4487537;32;19998;-80
2022/11/03 11:50:08;;;;;;;;;;;;;;;15.82;60.37;99189.75;4487534;32;20028;-80
2022/11/03 11:52:57;;;;;;;;;;;;;;;15.88;60.34;99185.81;4473029;32;19990;-80
2022/11/03 11:55:37;;;;;;;;;;;;;;;15.75;60.73;99195.59;4473278;32;20369;-80
2022/11/03 11:58:03;;;;;;;;;;;;;;;15.94;60.31;99187.19;4487274;32;20266;-80
2022/11/03 12:00:30;;;;;;;;;;;;;;;15.99;60.12;99179.72;4487391;32;19976;-80
2022/11/03 12:02:56;;;;;;;;;;;;;;;15.99;60.11;99185.03;4487161;32;19984;-80
2022/11/03 12:05:22;;;;;;;;;;;;;;;16.05;59.90;99174.84;4459811;32;19988;-80
2022/11/03 12:07:48;;;;;;;;;;;;;;;16.14;59.71;99173.31;4473071;32;20058;-80
2022/11/03 12:10:16;;;;;;;;;;;;;;;16.16;59.56;99167.91;4487248;32;19976;-80
2022/11/03 12:12:41;;;;;;;;;;;;;;;16.16;59.38;99160.78;4487269;32;20031;-80
2022/11/03 12:15:26;;;;;;;;;;;;;;;16.24;59.20;99162.87;4487213;32;20019;-80
2022/11/03 12:17:51;;;;;;;;;;;;;;;16.25;59.12;99154.81;4472766;32;20052;-80
2022/11/03 12:20:42;;;;;;;;;;;;;;;16.13;59.41;99158.34;4472921;32;19980;-80
2022/11/03 12:23:07;;;;;;;;;;;;;;;16.11;59.44;99147.00;4459982;32;19979;-80
2022/11/03 12:25:34;;;;;;;;;;;;;;;15.97;59.96;99144.44;4486882;32;20254;-80
2022/11/03 12:28:00;;;;;;;;;;;;;;;16.04;59.85;99143.91;4486941;32;19998;-79
2022/11/03 12:30:25;;;;;;;;;;;;;;;16.06;59.79;99138.47;4472733;32;19980;-80
2022/11/03 12:32:52;;;;;;;;;;;;;;;16.14;59.64;99135.28;4486894;32;19971;-80
2022/11/03 12:35:17;;;;;;;;;;;;;;;16.16;59.52;99126.22;4487076;32;20006;-80
2022/11/03 12:37:42;;;;;;;;;;;;;;;15.86;60.49;99131.94;4487046;32;20320;-80
2022/11/03 12:40:08;;;;;;;;;;;;;;;16.07;59.82;99124.22;4472656;32;20025;-80
2022/11/03 12:42:34;;;;;;;;;;;;;;;15.72;60.77;99128.41;4486940;32;20016;-80
2022/11/03 12:44:59;;;;;;;;;;;;;;;16.04;59.88;99124.47;4486911;32;19991;-80
2022/11/03 12:47:25;;;;;;;;;;;;;;;15.79;60.31;99125.34;4459558;32;20273;-80
2022/11/03 12:49:50;;;;;;;;;;;;;;;16.00;59.96;99123.81;4486858;32;19975;-80
2022/11/03 12:52:15;;;;;;;;;;;;;;;16.13;59.54;99118.50;4486647;32;20016;-80
2022/11/03 12:54:43;;;;;;;;;;;;;;;15.99;59.97;99114.16;4472555;32;20372;-80
2022/11/03 12:57:08;;;;;;;;;;;;;;;16.12;59.61;99108.81;4486671;32;19979;-80
2022/11/03 12:59:34;;;;;;;;;;;;;;;16.20;59.46;99110.91;4486600;32;20266;-80
2022/11/03 13:01:59;;;;;;;;;;;;;;;16.23;59.33;99110.69;4486756;32;20268;-80
2022/11/03 13:04:24;;;;;;;;;;;;;;;15.89;60.30;99111.28;4486459;32;20007;-80
2022/11/03 13:06:50;;;;;;;;;;;;;;;16.07;59.98;99110.94;4486619;32;19991;-81
2022/11/03 13:09:15;;;;;;;;;;;;;;;16.19;59.67;99106.56;4486677;32;19976;-80
2022/11/03 13:12:40;;;;;;;;;;;;;;;15.90;60.42;99104.19;4486557;32;20221;-80